Nearby METAR Reports


Data Updates Approximately Every Four Hours

METAR is the international standard code format for hourly surface weather observations which is analogous to the SA coding currently used in the US. The acronym roughly translates from French as Aviation Routine Weather Report. SPECI is merely the code name given to METAR formatted products which are issued on a special non-routine basis as dictated by changing meteorological conditions. The SPECI acronym roughly translates as Aviation Selected Special Weather Report.

KSLH - Cheboygan, Michigan, USA
Distance from station: W 9mi, 14km
Updated: 12/11/2019 5:56pm
Partly cloudy
Partly cloudy
 Wind from WSW
Wind: WSW 13 mph , 20 km/h, Gust: 20 mph , 31 km/h
Temperature: 12°F , -11°C
Wind Chill: -3°F , -19°C
Dew Point: 7°F , -14°C
Humidity: 79%
Barometer: 30.34 inHg , 1027.4 hPa
Clouds: Partly cloudy
Visibility: 7 miles , 11 km
Cloud details: Partly cloudy 2600 ft
Partly cloudy 3100 ft
2019/12/11 22:56 KSLH 112256Z AUTO 25011G17KT 7SM SCT026 SCT031 M11/M14 A3034 RMK AO2 T11101140
KMCD - Mackinac Island, Michigan, USA
Distance from station: NW 19mi, 31km
Updated: 12/11/2019 5:56pm
Mostly cloudy
Mostly cloudy
 Wind from W
Wind: W 18 mph , 30 km/h, Gust: 30 mph , 48 km/h
Temperature: 18°F , -8°C
Wind Chill: 2°F , -17°C
Dew Point: 10°F , -12°C
Humidity: 73%
Barometer: 30.32 inHg , 1026.8 hPa
Clouds: Mostly cloudy
Visibility: 10 miles , 16 km
Cloud details: Mostly cloudy 2300 ft
Mostly cloudy 2900 ft
2019/12/11 22:56 KMCD 112256Z AUTO 26016G26KT 10SM BKN023 BKN029 M08/M12 A3032 RMK AO2 T10821125
 
KPLN - Pellston, Michigan, USA
Distance from station: WSW 24mi, 38km
Updated: 12/11/2019 5:54pm
Haze, Overcast
Haze, Overcast
 Wind from WNW
Wind: WNW 12 mph , 19 km/h
Temperature: 12°F , -11°C
Wind Chill: -2°F , -19°C
Dew Point: 7°F , -14°C
Humidity: 79%
Barometer: 30.36 inHg , 1028.1 hPa
Summary: Haze
Clouds: Overcast
Visibility: 6 miles , 10 km
Cloud details: Few Clouds 2600 ft
Overcast 3200 ft
2019/12/11 22:54 KPLN 112254Z AUTO 30010KT 6SM HZ FEW026 OVC032 M11/M14 A3036 RMK AO2 SNE54 SLP298 P0000 T11061139
KPZQ - Rogers City, Michigan, USA
Distance from station: SE 31mi, 50km
Updated: 12/11/2019 5:56pm
Light snow, Overcast
Light snow, Overcast
 Wind from W
Wind: W 7 mph , 11 km/h
Temperature: 14°F , -10°C
Wind Chill: 4°F , -16°C
Dew Point: 9°F , -13°C
Humidity: 79%
Barometer: 30.35 inHg , 1027.8 hPa
Summary: Light Snow
Clouds: Overcast
Visibility: 5 miles , 8 km
Cloud details: Partly cloudy 1900 ft
Mostly cloudy 2800 ft
Overcast 3400 ft
2019/12/11 22:56 KPZQ 112256Z AUTO 26006KT 5SM -SN SCT019 BKN028 OVC034 M10/M13 A3035 RMK AO2 T11011127
 
KMGN - Harbor Springs, Michigan, USA
Distance from station: WSW 32mi, 52km
Updated: 12/11/2019 5:55pm
Light snow, Overcast
Light snow, Overcast
 Wind from W
Wind: W 12 mph , 19 km/h, Gust: 20 mph , 31 km/h
Temperature: 18°F , -8°C
Wind Chill: 5°F , -15°C
Dew Point: 10°F , -12°C
Humidity: 73%
Barometer: 30.35 inHg , 1027.8 hPa
Summary: Light Snow
Clouds: Overcast
Visibility: 7 miles , 11 km
Cloud details: Partly cloudy 2100 ft
Overcast 3000 ft
2019/12/11 22:55 KMGN 112255Z AUTO 28010G17KT 7SM -SN SCT021 OVC030 M08/M12 A3035 RMK AO2 T10831126
KDRM - Drummond Is, Michigan, USA
Distance from station: NE 36mi, 59km
Updated: 12/11/2019 5:55pm
Partly cloudy
Partly cloudy
 Wind from WSW
Wind: WSW 9 mph , 15 km/h, Gust: 18 mph , 30 km/h
Temperature: 18°F , -8°C
Wind Chill: 7°F , -14°C
Dew Point: 9°F , -13°C
Humidity: 68%
Barometer: 30.28 inHg , 1025.4 hPa
Clouds: Partly cloudy
Visibility: 10 miles , 16 km
Cloud details: Partly cloudy 5000 ft
2019/12/11 22:55 KDRM 112255Z AUTO 25008G16KT 210V270 10SM SCT050 M08/M13 A3028 RMK AO2 T10841126
 
KCIU - Chippewa Intl, Michigan, USA
Distance from station: N 41mi, 66km
Updated: 12/11/2019 5:56pm
Mostly cloudy
Mostly cloudy
 Wind from W
Wind: W 12 mph , 19 km/h
Temperature: 7°F , -14°C
Wind Chill: -9°F , -23°C
Dew Point: 1°F , -17°C
Humidity: 78%
Clouds: Mostly cloudy
Visibility: 10 miles , 16 km
Cloud details: Mostly cloudy 3700 ft
2019/12/11 22:56 KCIU 112256Z AUTO 26010KT 10SM BKN037 M14/M17 RMK AO2 SLPNO T11391172 FZRANO $
KGLR - Gaylord, Michigan, USA
Distance from station: SSW 48mi, 77km
Updated: 12/11/2019 5:53pm
Light snow, Mist, Overcast
Light snow, Mist, Overcast
 Wind from WSW
Wind: WSW 14 mph , 22 km/h, Gust: 23 mph , 37 km/h
Temperature: 9°F , -13°C
Wind Chill: -7°F , -22°C
Dew Point: 5°F , -15°C
Humidity: 85%
Barometer: 30.31 inHg , 1026.4 hPa
Summary: Light snow, Mist
Clouds: Overcast
Visibility: 2 1/2 miles , 4 km
Cloud details: Overcast 2800 ft
2019/12/11 22:53 KGLR 112253Z AUTO 25012G20KT 2 1/2SM -SN BR OVC028 M13/M15 A3031 RMK AO2 SLP296 P0000 T11281150
 
KCVX - Charlevoix, Michigan, USA
Distance from station: WSW 52mi, 83km
Updated: 12/11/2019 5:55pm
Light snow, Overcast
Light snow, Overcast
 Wind from WSW
Wind: WSW 16 mph , 26 km/h
Temperature: 18°F , -8°C
Wind Chill: 3°F , -16°C
Dew Point: 10°F , -12°C
Humidity: 73%
Barometer: 30.38 inHg , 1028.8 hPa
Summary: Light Snow
Clouds: Overcast
Visibility: 4 miles , 6 km
Cloud details: Partly cloudy 1300 ft
Overcast 2200 ft
2019/12/11 22:55 KCVX 112255Z AUTO 25014KT 4SM -SN SCT013 OVC022 M08/M12 A3038 RMK AO2 T10811123
KANJ - Sault Ste Marie, Michigan, USA
Distance from station: N 56mi, 89km
Updated: 12/11/2019 5:55pm
Light snow, Overcast
Light snow, Overcast
 Wind from WSW
Wind: WSW 18 mph , 30 km/h, Gust: 25 mph , 41 km/h
Temperature: 10°F , -12°C
Wind Chill: -8°F , -22°C
Dew Point: 3°F , -16°C
Humidity: 72%
Barometer: 30.27 inHg , 1025.1 hPa
Summary: Light Snow
Clouds: Overcast
Visibility: 2 1/2 miles , 4 km
Cloud details: Mostly cloudy 1900 ft
Overcast 2700 ft
2019/12/11 22:55 KANJ 112255Z AUTO 24016G22KT 2 1/2SM -SN BKN019 OVC027 M12/M16 A3027 RMK AO2 SLP266 P0000 T11171156
 
KAPN - Alpena, Michigan, USA
Distance from station: SE 56mi, 89km
Updated: 12/11/2019 5:54pm
Overcast
Overcast
 Wind from WSW
Wind: WSW 16 mph , 26 km/h, Gust: 24 mph , 39 km/h
Temperature: 16°F , -9°C
Wind Chill: 1°F , -17°C
Dew Point: 3°F , -16°C
Humidity: 57%
Barometer: 30.35 inHg , 1027.8 hPa
Clouds: Overcast
Visibility: 10 miles , 16 km
Cloud details: Overcast 3800 ft
2019/12/11 22:54 KAPN 112254Z AUTO 25014G21KT 10SM OVC038 M09/M16 A3035 RMK AO2 SLP293 T10941156
CYAM - Sault Ste Marie, Ontario, Canada
Distance from station: N 56mi, 90km
Updated: 12/11/2019 6:00pm
Light snow, Showers, Blowing, Snow, Overcast
Light snow, Showers, Blowing, Snow, Overcast
 Wind from WSW
Wind: WSW 21 mph , 33 km/h, Gust: 28 mph , 44 km/h
Temperature: 10°F , -12°C
Wind Chill: -9°F , -23°C
Dew Point: 5°F , -15°C
Humidity: 79%
Barometer: 30.28 inHg , 1025.4 hPa
Summary: Light snow, Showers, Blowing, Snow
Clouds: Overcast
Visibility: 1 3/4 miles , 2.8 km
Cloud details: Few Clouds 900 ft
Partly cloudy 1600 ft
Mostly cloudy 2700 ft
Overcast 4600 ft
2019/12/11 23:00 CYAM 112300Z 24018G24KT 1 3/4SM -SHSN BLSN FEW009 SCT016TCU BKN027 OVC046 M12/M15 A3028 RMK SN2CF1TCU2SC2SC2 CF TR VIS VRB 1 1/4-2 1/4 SLP272
 
KSJX - Beaver Island, Michigan, USA
Distance from station: W 60mi, 96km
Updated: 12/11/2019 5:55pm
Mostly cloudy
Mostly cloudy
 Wind from W
Wind: W 10 mph , 17 km/h, Gust: 18 mph , 30 km/h
Temperature: 14°F , -10°C
Wind Chill: 1°F , -17°C
Dew Point: 7°F , -14°C
Humidity: 73%
Barometer: 30.37 inHg , 1028.4 hPa
Clouds: Mostly cloudy
Visibility: 10 miles , 16 km
Cloud details: Mostly cloudy 2400 ft
2019/12/11 22:55 KSJX 112255Z AUTO 28009G16KT 10SM BKN024 M10/M14 A3037 RMK AO2 T11001144
KACB - Bellaire, Michigan, USA
Distance from station: SW 63mi, 102km
Updated: 12/11/2019 5:55pm
Light snow, Overcast
Light snow, Overcast
 Wind from SW
Wind: SW 8 mph , 13 km/h
Temperature: 16°F , -9°C
Wind Chill: 5°F , -15°C
Dew Point: 10°F , -12°C
Humidity: 79%
Barometer: 30.42 inHg , 1030.1 hPa
Summary: Light Snow
Clouds: Overcast
Visibility: 4 miles , 6 km
Cloud details: Partly cloudy 1300 ft
Overcast 2100 ft
2019/12/11 22:55 KACB 112255Z AUTO 23007KT 4SM -SN SCT013 OVC021 M09/M12 A3042 RMK AO2 T10931124
 
CWNL - Great Duck Island, Ontario, Canada
Distance from station: E 66mi, 106km
Updated: 12/11/2019 5:00pm

 Wind from WNW
Wind: WNW 21 mph , 33 km/h, Gust: 36 mph , 57 km/h
Temperature: 21°F , -6°C
Wind Chill: 5°F , -15°C
Dew Point: 18°F , -8°C
Humidity: 86%
2019/12/11 22:00 CWNL 112200Z AUTO 29018G31KT M06/M08 RMK AO1 PK WND 29032/2126 SLP251 T10561075 51039
KERY - Newberry, Michigan, USA
Distance from station: NW 69mi, 112km
Updated: 12/11/2019 5:55pm
Mostly cloudy
Mostly cloudy
 Wind from SW
Wind: SW 14 mph , 22 km/h, Gust: 17 mph , 28 km/h
Temperature: 9°F , -13°C
Wind Chill: -7°F , -22°C
Dew Point: -0°F , -18°C
Humidity: 66%
Barometer: 30.28 inHg , 1025.4 hPa
Clouds: Mostly cloudy
Visibility: 10 miles , 16 km
Cloud details: Mostly cloudy 3000 ft
Mostly cloudy 3700 ft
Mostly cloudy 4800 ft
2019/12/11 22:55 KERY 112255Z AUTO 23012G15KT 10SM BKN030 BKN037 BKN048 M13/M18 A3028 RMK AO2 T11351184
 
KGOV - Grayling Af, Michigan, USA
Distance from station: SSW 70mi, 113km
Updated: 12/11/2019 5:58pm
Overcast
Overcast
 Wind from WSW
Wind: WSW 10 mph , 17 km/h
Temperature: 9°F , -13°C
Wind Chill: -5°F , -21°C
Dew Point: 3°F , -16°C
Humidity: 78%
Barometer: 30.38 inHg , 1028.8 hPa
Clouds: Overcast
Visibility: 10 miles , 16 km
Cloud details: Overcast 2000 ft
2019/12/11 22:58 KGOV 112258Z AUTO 25009KT 10SM OVC020 M13/M16 A3038 RMK AO2 SLP324 T11271164 $